sensor_id;sensor_type;location;lat;lon;timestamp;pressure;altitude;pressure_sealevel;temperature;humidity
20021;BME280;10171;42.694;23.318;2022-07-29T00:00:09;95217.38;;;22.20;nan
20021;BME280;10171;42.694;23.318;2022-07-29T00:02:34;95219.63;;;22.31;nan
20021;BME280;10171;42.694;23.318;2022-07-29T00:05:01;95227.91;;;22.42;nan
20021;BME280;10171;42.694;23.318;2022-07-29T00:07:26;95238.94;;;22.52;nan
20021;BME280;10171;42.694;23.318;2022-07-29T00:09:52;95240.91;;;22.50;nan
20021;BME280;10171;42.694;23.318;2022-07-29T00:12:22;95236.00;;;22.55;nan
20021;BME280;10171;42.694;23.318;2022-07-29T00:14:48;95237.25;;;22.67;nan
20021;BME280;10171;42.694;23.318;2022-07-29T00:17:13;95240.00;;;22.66;nan
20021;BME280;10171;42.694;23.318;2022-07-29T00:19:39;95243.78;;;22.63;nan
20021;BME280;10171;42.694;23.318;2022-07-29T00:22:04;95236.59;;;22.65;nan
20021;BME280;10171;42.694;23.318;2022-07-29T00:24:30;95241.59;;;22.75;nan
20021;BME280;10171;42.694;23.318;2022-07-29T00:26:55;95241.75;;;22.73;nan
20021;BME280;10171;42.694;23.318;2022-07-29T00:29:21;95237.31;;;22.82;nan
20021;BME280;10171;42.694;23.318;2022-07-29T00:31:46;95236.41;;;22.67;nan
20021;BME280;10171;42.694;23.318;2022-07-29T00:34:11;95238.44;;;22.49;nan
20021;BME280;10171;42.694;23.318;2022-07-29T00:36:57;95239.63;;;22.46;nan
20021;BME280;10171;42.694;23.318;2022-07-29T00:39:23;95238.00;;;22.45;nan
20021;BME280;10171;42.694;23.318;2022-07-29T00:41:49;95249.66;;;22.57;nan
20021;BME280;10171;42.694;23.318;2022-07-29T00:44:14;95243.81;;;22.55;nan
20021;BME280;10171;42.694;23.318;2022-07-29T00:46:40;95247.72;;;22.51;nan
20021;BME280;10171;42.694;23.318;2022-07-29T00:49:05;95247.25;;;22.32;nan
20021;BME280;10171;42.694;23.318;2022-07-29T00:51:34;95241.59;;;22.29;nan
20021;BME280;10171;42.694;23.318;2022-07-29T00:54:01;95255.00;;;22.10;nan
20021;BME280;10171;42.694;23.318;2022-07-29T00:56:32;95259.22;;;22.11;nan
20021;BME280;10171;42.694;23.318;2022-07-29T00:58:59;95252.69;;;22.15;nan
20021;BME280;10171;42.694;23.318;2022-07-29T01:01:24;95252.38;;;22.18;nan
20021;BME280;10171;42.694;23.318;2022-07-29T01:03:50;95250.91;;;22.15;nan
20021;BME280;10171;42.694;23.318;2022-07-29T01:06:17;95248.66;;;21.96;nan
20021;BME280;10171;42.694;23.318;2022-07-29T01:08:44;95241.19;;;21.93;nan
20021;BME280;10171;42.694;23.318;2022-07-29T01:11:11;95245.72;;;21.99;nan
20021;BME280;10171;42.694;23.318;2022-07-29T01:13:36;95237.44;;;22.04;nan
20021;BME280;10171;42.694;23.318;2022-07-29T01:16:15;95236.97;;;21.84;nan
20021;BME280;10171;42.694;23.318;2022-07-29T01:18:46;95232.44;;;21.62;nan
20021;BME280;10171;42.694;23.318;2022-07-29T01:26:48;95227.56;;;21.59;nan
20021;BME280;10171;42.694;23.318;2022-07-29T01:32:05;95224.97;;;21.51;nan
20021;BME280;10171;42.694;23.318;2022-07-29T01:34:41;95223.00;;;21.53;nan
20021;BME280;10171;42.694;23.318;2022-07-29T01:39:37;95210.19;;;21.52;nan
20021;BME280;10171;42.694;23.318;2022-07-29T01:42:23;95215.72;;;21.65;nan
20021;BME280;10171;42.694;23.318;2022-07-29T01:45:12;95216.69;;;21.72;nan
20021;BME280;10171;42.694;23.318;2022-07-29T01:50:16;95226.28;;;21.71;nan
20021;BME280;10171;42.694;23.318;2022-07-29T01:52:49;95220.72;;;21.90;nan
20021;BME280;10171;42.694;23.318;2022-07-29T01:55:20;95208.69;;;21.89;nan
20021;BME280;10171;42.694;23.318;2022-07-29T01:57:48;95216.81;;;21.86;nan
20021;BME280;10171;42.694;23.318;2022-07-29T02:00:15;95213.44;;;21.70;nan
20021;BME280;10171;42.694;23.318;2022-07-29T02:02:43;95204.66;;;21.71;nan
20021;BME280;10171;42.694;23.318;2022-07-29T02:05:13;95200.94;;;21.65;nan
20021;BME280;10171;42.694;23.318;2022-07-29T02:07:40;95207.41;;;21.69;nan
20021;BME280;10171;42.694;23.318;2022-07-29T02:10:08;95211.78;;;21.85;nan
20021;BME280;10171;42.694;23.318;2022-07-29T02:12:35;95201.19;;;21.94;nan
20021;BME280;10171;42.694;23.318;2022-07-29T02:15:02;95196.97;;;21.85;nan
20021;BME280;10171;42.694;23.318;2022-07-29T02:17:34;95206.44;;;21.78;nan
20021;BME280;10171;42.694;23.318;2022-07-29T02:20:02;95198.75;;;22.01;nan
20021;BME280;10171;42.694;23.318;2022-07-29T02:22:29;95203.81;;;21.86;nan
20021;BME280;10171;42.694;23.318;2022-07-29T02:24:57;95196.34;;;21.83;nan
20021;BME280;10171;42.694;23.318;2022-07-29T02:27:24;95192.47;;;21.63;nan
20021;BME280;10171;42.694;23.318;2022-07-29T02:29:51;95192.47;;;21.63;nan
20021;BME280;10171;42.694;23.318;2022-07-29T02:32:19;95192.31;;;21.57;nan
20021;BME280;10171;42.694;23.318;2022-07-29T02:34:47;95183.69;;;21.56;nan
20021;BME280;10171;42.694;23.318;2022-07-29T02:37:13;95179.66;;;21.62;nan
20021;BME280;10171;42.694;23.318;2022-07-29T02:39:43;95181.25;;;21.79;nan
20021;BME280;10171;42.694;23.318;2022-07-29T02:42:12;95178.47;;;21.80;nan
20021;BME280;10171;42.694;23.318;2022-07-29T02:44:40;95168.72;;;21.74;nan
20021;BME280;10171;42.694;23.318;2022-07-29T02:52:44;95184.19;;;21.68;nan
20021;BME280;10171;42.694;23.318;2022-07-29T02:55:23;95183.53;;;21.58;nan
20021;BME280;10171;42.694;23.318;2022-07-29T02:58:21;95179.47;;;21.63;nan
20021;BME280;10171;42.694;23.318;2022-07-29T03:00:55;95182.72;;;21.57;nan
20021;BME280;10171;42.694;23.318;2022-07-29T03:03:22;95180.44;;;21.54;nan
20021;BME280;10171;42.694;23.318;2022-07-29T03:05:54;95182.56;;;21.59;nan
20021;BME280;10171;42.694;23.318;2022-07-29T03:08:21;95178.34;;;21.42;nan
20021;BME280;10171;42.694;23.318;2022-07-29T03:10:48;95186.78;;;21.44;nan
20021;BME280;10171;42.694;23.318;2022-07-29T03:13:14;95179.47;;;21.47;nan
20021;BME280;10171;42.694;23.318;2022-07-29T03:15:42;95181.28;;;21.31;nan
20021;BME280;10171;42.694;23.318;2022-07-29T03:18:09;95176.09;;;21.31;nan
20021;BME280;10171;42.694;23.318;2022-07-29T03:20:34;95181.59;;;21.28;nan
20021;BME280;10171;42.694;23.318;2022-07-29T03:23:00;95179.66;;;21.14;nan
20021;BME280;10171;42.694;23.318;2022-07-29T03:25:25;95182.59;;;21.11;nan
20021;BME280;10171;42.694;23.318;2022-07-29T03:27:52;95179.81;;;21.04;nan
20021;BME280;10171;42.694;23.318;2022-07-29T03:30:17;95181.94;;;21.09;nan
20021;BME280;10171;42.694;23.318;2022-07-29T03:32:44;95184.53;;;21.17;nan
20021;BME280;10171;42.694;23.318;2022-07-29T03:35:09;95172.53;;;21.16;nan
20021;BME280;10171;42.694;23.318;2022-07-29T03:37:35;95188.09;;;21.16;nan
20021;BME280;10171;42.694;23.318;2022-07-29T03:40:03;95190.06;;;21.30;nan
20021;BME280;10171;42.694;23.318;2022-07-29T03:42:35;95195.41;;;21.44;nan
20021;BME280;10171;42.694;23.318;2022-07-29T03:45:05;95194.91;;;21.49;nan
20021;BME280;10171;42.694;23.318;2022-07-29T03:47:33;95191.34;;;21.58;nan
20021;BME280;10171;42.694;23.318;2022-07-29T03:50:02;95198.63;;;21.54;nan
20021;BME280;10171;42.694;23.318;2022-07-29T03:52:30;95203.84;;;21.62;nan
20021;BME280;10171;42.694;23.318;2022-07-29T03:54:55;95203.69;;;21.40;nan
20021;BME280;10171;42.694;23.318;2022-07-29T03:57:23;95203.38;;;21.35;nan
20021;BME280;10171;42.694;23.318;2022-07-29T03:59:51;95205.13;;;21.50;nan
20021;BME280;10171;42.694;23.318;2022-07-29T04:02:16;95209.88;;;21.47;nan
20021;BME280;10171;42.694;23.318;2022-07-29T04:04:42;95212.63;;;21.61;nan
20021;BME280;10171;42.694;23.318;2022-07-29T04:07:12;95207.41;;;21.53;nan
20021;BME280;10171;42.694;23.318;2022-07-29T04:09:38;95210.50;;;21.57;nan
20021;BME280;10171;42.694;23.318;2022-07-29T04:12:04;95203.03;;;21.46;nan
20021;BME280;10171;42.694;23.318;2022-07-29T04:14:31;95205.13;;;21.58;nan
20021;BME280;10171;42.694;23.318;2022-07-29T04:16:57;95199.78;;;21.76;nan
20021;BME280;10171;42.694;23.318;2022-07-29T04:19:22;95193.94;;;21.58;nan
20021;BME280;10171;42.694;23.318;2022-07-29T04:21:47;95199.81;;;21.68;nan
20021;BME280;10171;42.694;23.318;2022-07-29T04:24:13;95197.03;;;21.69;nan
20021;BME280;10171;42.694;23.318;2022-07-29T04:26:38;95205.78;;;21.76;nan
20021;BME280;10171;42.694;23.318;2022-07-29T04:29:04;95206.44;;;21.70;nan
20021;BME280;10171;42.694;23.318;2022-07-29T04:31:29;95204.00;;;21.77;nan
20021;BME280;10171;42.694;23.318;2022-07-29T04:33:55;95204.66;;;21.79;nan
20021;BME280;10171;42.694;23.318;2022-07-29T04:36:20;95214.25;;;21.70;nan
20021;BME280;10171;42.694;23.318;2022-07-29T04:38:45;95212.63;;;21.69;nan
20021;BME280;10171;42.694;23.318;2022-07-29T04:41:11;95215.06;;;21.71;nan
20021;BME280;10171;42.694;23.318;2022-07-29T04:43:36;95216.69;;;21.72;nan
20021;BME280;10171;42.694;23.318;2022-07-29T04:46:03;95217.78;;;21.85;nan
20021;BME280;10171;42.694;23.318;2022-07-29T04:48:29;95215.38;;;21.76;nan
20021;BME280;10171;42.694;23.318;2022-07-29T04:50:55;95215.22;;;21.77;nan
20021;BME280;10171;42.694;23.318;2022-07-29T04:53:20;95217.78;;;21.85;nan
20021;BME280;10171;42.694;23.318;2022-07-29T04:55:46;95223.63;;;21.95;nan
20021;BME280;10171;42.694;23.318;2022-07-29T04:58:11;95227.38;;;22.01;nan
20021;BME280;10171;42.694;23.318;2022-07-29T05:00:37;95220.34;;;22.01;nan
20021;BME280;10171;42.694;23.318;2022-07-29T05:03:03;95224.75;;;22.09;nan
20021;BME280;10171;42.694;23.318;2022-07-29T05:05:29;95219.19;;;22.12;nan
20021;BME280;10171;42.694;23.318;2022-07-29T05:07:54;95217.91;;;22.16;nan
20021;BME280;10171;42.694;23.318;2022-07-29T05:10:20;95218.19;;;22.21;nan
20021;BME280;10171;42.694;23.318;2022-07-29T05:12:45;95218.00;;;22.38;nan
20021;BME280;10171;42.694;23.318;2022-07-29T05:15:11;95221.25;;;22.32;nan
20021;BME280;10171;42.694;23.318;2022-07-29T05:17:37;95219.88;;;22.52;nan
20021;BME280;10171;42.694;23.318;2022-07-29T05:20:03;95226.91;;;22.51;nan
20021;BME280;10171;42.694;23.318;2022-07-29T05:22:29;95230.47;;;22.50;nan
20021;BME280;10171;42.694;23.318;2022-07-29T05:24:54;95226.38;;;22.56;nan
20021;BME280;10171;42.694;23.318;2022-07-29T05:27:19;95228.28;;;22.62;nan
20021;BME280;10171;42.694;23.318;2022-07-29T05:29:45;95223.28;;;22.60;nan
20021;BME280;10171;42.694;23.318;2022-07-29T05:32:10;95214.53;;;22.53;nan
20021;BME280;10171;42.694;23.318;2022-07-29T05:34:36;95224.25;;;22.59;nan
20021;BME280;10171;42.694;23.318;2022-07-29T05:37:01;95221.66;;;22.59;nan
20021;BME280;10171;42.694;23.318;2022-07-29T05:39:27;95218.56;;;22.56;nan
20021;BME280;10171;42.694;23.318;2022-07-29T05:41:52;95221.78;;;22.66;nan
20021;BME280;10171;42.694;23.318;2022-07-29T05:44:18;95220.00;;;22.66;nan
20021;BME280;10171;42.694;23.318;2022-07-29T05:46:43;95224.66;;;22.71;nan
20021;BME280;10171;42.694;23.318;2022-07-29T05:49:09;95227.38;;;22.85;nan
20021;BME280;10171;42.694;23.318;2022-07-29T05:51:34;95228.06;;;23.02;nan
20021;BME280;10171;42.694;23.318;2022-07-29T05:54:00;95231.16;;;23.05;nan
20021;BME280;10171;42.694;23.318;2022-07-29T05:56:25;95241.59;;;23.05;nan
20021;BME280;10171;42.694;23.318;2022-07-29T05:58:51;95233.09;;;23.11;nan
20021;BME280;10171;42.694;23.318;2022-07-29T06:01:17;95225.94;;;23.13;nan
20021;BME280;10171;42.694;23.318;2022-07-29T06:03:42;95234.63;;;23.28;nan
20021;BME280;10171;42.694;23.318;2022-07-29T06:06:08;95237.91;;;23.45;nan
20021;BME280;10171;42.694;23.318;2022-07-29T06:08:34;95239.53;;;23.46;nan
20021;BME280;10171;42.694;23.318;2022-07-29T06:11:00;95230.72;;;23.47;nan
20021;BME280;10171;42.694;23.318;2022-07-29T06:13:29;95239.28;;;23.55;nan
20021;BME280;10171;42.694;23.318;2022-07-29T06:15:54;95230.41;;;23.64;nan
20021;BME280;10171;42.694;23.318;2022-07-29T06:18:20;95231.41;;;23.77;nan
20021;BME280;10171;42.694;23.318;2022-07-29T06:20:52;95236.47;;;23.79;nan
20021;BME280;10171;42.694;23.318;2022-07-29T06:23:19;95230.94;;;23.82;nan
20021;BME280;10171;42.694;23.318;2022-07-29T06:25:44;95237.06;;;23.89;nan
20021;BME280;10171;42.694;23.318;2022-07-29T06:28:10;95232.13;;;23.94;nan
20021;BME280;10171;42.694;23.318;2022-07-29T06:30:36;95239.41;;;23.98;nan
20021;BME280;10171;42.694;23.318;2022-07-29T06:33:02;95234.47;;;24.03;nan
20021;BME280;10171;42.694;23.318;2022-07-29T06:35:28;95232.75;;;24.10;nan
20021;BME280;10171;42.694;23.318;2022-07-29T06:37:53;95235.75;;;24.22;nan
20021;BME280;10171;42.694;23.318;2022-07-29T06:40:19;95227.25;;;24.34;nan
20021;BME280;10171;42.694;23.318;2022-07-29T06:43:03;95229.78;;;24.42;nan
20021;BME280;10171;42.694;23.318;2022-07-29T06:45:29;95219.47;;;24.49;nan
20021;BME280;10171;42.694;23.318;2022-07-29T06:47:54;95218.81;;;24.47;nan
20021;BME280;10171;42.694;23.318;2022-07-29T06:50:20;95215.41;;;24.61;nan
20021;BME280;10171;42.694;23.318;2022-07-29T06:52:47;95218.44;;;24.64;nan
20021;BME280;10171;42.694;23.318;2022-07-29T06:55:12;95221.22;;;24.77;nan
20021;BME280;10171;42.694;23.318;2022-07-29T06:57:41;95229.56;;;24.87;nan
20021;BME280;10171;42.694;23.318;2022-07-29T07:00:06;95224.31;;;25.02;nan
20021;BME280;10171;42.694;23.318;2022-07-29T07:02:32;95221.75;;;25.08;nan
20021;BME280;10171;42.694;23.318;2022-07-29T07:04:57;95219.50;;;25.19;nan
20021;BME280;10171;42.694;23.318;2022-07-29T07:07:24;95214.66;;;25.17;nan
20021;BME280;10171;42.694;23.318;2022-07-29T07:09:49;95212.28;;;25.21;nan
20021;BME280;10171;42.694;23.318;2022-07-29T07:12:15;95210.03;;;25.39;nan
20021;BME280;10171;42.694;23.318;2022-07-29T07:14:40;95215.66;;;25.36;nan
20021;BME280;10171;42.694;23.318;2022-07-29T07:17:06;95213.66;;;25.38;nan
20021;BME280;10171;42.694;23.318;2022-07-29T07:19:32;95210.53;;;25.49;nan
20021;BME280;10171;42.694;23.318;2022-07-29T07:21:57;95203.69;;;25.48;nan
20021;BME280;10171;42.694;23.318;2022-07-29T07:24:23;95223.25;;;25.52;nan
20021;BME280;10171;42.694;23.318;2022-07-29T07:26:48;95210.03;;;25.60;nan
20021;BME280;10171;42.694;23.318;2022-07-29T07:29:13;95214.25;;;25.61;nan
20021;BME280;10171;42.694;23.318;2022-07-29T07:31:39;95206.41;;;25.61;nan
20021;BME280;10171;42.694;23.318;2022-07-29T07:34:05;95207.44;;;25.67;nan
20021;BME280;10171;42.694;23.318;2022-07-29T07:36:30;95205.06;;;25.72;nan
20021;BME280;10171;42.694;23.318;2022-07-29T07:38:55;95204.63;;;25.89;nan
20021;BME280;10171;42.694;23.318;2022-07-29T07:41:21;95208.34;;;26.01;nan
20021;BME280;10171;42.694;23.318;2022-07-29T07:43:47;95205.34;;;26.04;nan
20021;BME280;10171;42.694;23.318;2022-07-29T07:46:13;95200.44;;;25.95;nan
20021;BME280;10171;42.694;23.318;2022-07-29T07:48:38;95200.34;;;26.09;nan
20021;BME280;10171;42.694;23.318;2022-07-29T07:51:04;95202.38;;;26.14;nan
20021;BME280;10171;42.694;23.318;2022-07-29T07:53:29;95202.41;;;26.20;nan
20021;BME280;10171;42.694;23.318;2022-07-29T07:55:55;95209.69;;;26.25;nan
20021;BME280;10171;42.694;23.318;2022-07-29T07:58:21;95209.06;;;26.23;nan
20021;BME280;10171;42.694;23.318;2022-07-29T08:00:46;95199.88;;;26.33;nan
20021;BME280;10171;42.694;23.318;2022-07-29T08:03:12;95200.50;;;26.42;nan
20021;BME280;10171;42.694;23.318;2022-07-29T08:05:39;95195.88;;;26.44;nan
20021;BME280;10171;42.694;23.318;2022-07-29T08:08:05;95198.97;;;26.53;nan
20021;BME280;10171;42.694;23.318;2022-07-29T08:13:19;95201.47;;;26.68;nan
20021;BME280;10171;42.694;23.318;2022-07-29T08:15:45;95185.31;;;26.64;nan
20021;BME280;10171;42.694;23.318;2022-07-29T08:18:12;95190.56;;;26.64;nan
20021;BME280;10171;42.694;23.318;2022-07-29T08:20:37;95193.44;;;26.76;nan
20021;BME280;10171;42.694;23.318;2022-07-29T08:23:05;95199.72;;;26.88;nan
20021;BME280;10171;42.694;23.318;2022-07-29T08:25:32;95182.97;;;26.82;nan
20021;BME280;10171;42.694;23.318;2022-07-29T08:27:58;95191.69;;;26.96;nan
20021;BME280;10171;42.694;23.318;2022-07-29T08:30:24;95191.75;;;27.09;nan
20021;BME280;10171;42.694;23.318;2022-07-29T08:32:50;95193.38;;;27.16;nan
20021;BME280;10171;42.694;23.318;2022-07-29T08:35:18;95205.50;;;27.24;nan
20021;BME280;10171;42.694;23.318;2022-07-29T08:37:43;95202.25;;;27.28;nan
20021;BME280;10171;42.694;23.318;2022-07-29T08:40:09;95188.75;;;27.31;nan
20021;BME280;10171;42.694;23.318;2022-07-29T08:42:35;95186.34;;;27.43;nan
20021;BME280;10171;42.694;23.318;2022-07-29T08:45:02;95191.41;;;27.38;nan
20021;BME280;10171;42.694;23.318;2022-07-29T08:47:27;95175.84;;;27.43;nan
20021;BME280;10171;42.694;23.318;2022-07-29T08:49:53;95178.47;;;27.43;nan
20021;BME280;10171;42.694;23.318;2022-07-29T08:52:18;95181.28;;;27.41;nan
20021;BME280;10171;42.694;23.318;2022-07-29T08:54:45;95181.09;;;27.43;nan
20021;BME280;10171;42.694;23.318;2022-07-29T08:57:14;95184.13;;;27.59;nan
20021;BME280;10171;42.694;23.318;2022-07-29T08:59:42;95170.00;;;27.67;nan
20021;BME280;10171;42.694;23.318;2022-07-29T09:02:13;95171.44;;;27.69;nan
20021;BME280;10171;42.694;23.318;2022-07-29T09:04:41;95169.59;;;27.76;nan
20021;BME280;10171;42.694;23.318;2022-07-29T09:07:07;95170.81;;;27.93;nan
20021;BME280;10171;42.694;23.318;2022-07-29T09:09:34;95166.75;;;28.03;nan
20021;BME280;10171;42.694;23.318;2022-07-29T09:12:00;95168.75;;;28.14;nan
20021;BME280;10171;42.694;23.318;2022-07-29T09:14:26;95163.06;;;28.24;nan
20021;BME280;10171;42.694;23.318;2022-07-29T09:16:53;95159.22;;;28.33;nan
20021;BME280;10171;42.694;23.318;2022-07-29T09:19:30;95162.84;;;28.38;nan
20021;BME280;10171;42.694;23.318;2022-07-29T09:21:57;95154.34;;;28.43;nan
20021;BME280;10171;42.694;23.318;2022-07-29T09:24:36;95158.56;;;28.50;nan
20021;BME280;10171;42.694;23.318;2022-07-29T09:29:43;95167.91;;;28.84;nan
20021;BME280;10171;42.694;23.318;2022-07-29T09:32:09;95171.91;;;28.99;nan
20021;BME280;10171;42.694;23.318;2022-07-29T09:34:35;95153.41;;;29.12;nan
20021;BME280;10171;42.694;23.318;2022-07-29T09:37:02;95158.09;;;29.10;nan
20021;BME280;10171;42.694;23.318;2022-07-29T09:39:34;95165.22;;;29.34;nan
20021;BME280;10171;42.694;23.318;2022-07-29T09:42:03;95166.94;;;29.53;nan
20021;BME280;10171;42.694;23.318;2022-07-29T09:44:45;95155.94;;;29.80;nan
20021;BME280;10171;42.694;23.318;2022-07-29T09:47:14;95152.34;;;29.99;nan
20021;BME280;10171;42.694;23.318;2022-07-29T09:52:16;95153.94;;;30.25;nan
20021;BME280;10171;42.694;23.318;2022-07-29T09:54:41;95144.41;;;30.42;nan
20021;BME280;10171;42.694;23.318;2022-07-29T09:57:09;95142.13;;;30.45;nan
20021;BME280;10171;42.694;23.318;2022-07-29T10:00:00;95143.84;;;30.58;nan
20021;BME280;10171;42.694;23.318;2022-07-29T10:02:31;95141.19;;;30.58;nan
20021;BME280;10171;42.694;23.318;2022-07-29T10:04:57;95137.94;;;30.73;nan
20021;BME280;10171;42.694;23.318;2022-07-29T10:07:24;95119.94;;;30.71;nan
20021;BME280;10171;42.694;23.318;2022-07-29T10:09:53;95125.41;;;30.69;nan
20021;BME280;10171;42.694;23.318;2022-07-29T10:12:19;95114.47;;;30.83;nan
20021;BME280;10171;42.694;23.318;2022-07-29T10:14:45;95118.66;;;31.02;nan
20021;BME280;10171;42.694;23.318;2022-07-29T10:17:11;95115.16;;;31.08;nan
20021;BME280;10171;42.694;23.318;2022-07-29T10:19:37;95111.16;;;31.17;nan
20021;BME280;10171;42.694;23.318;2022-07-29T10:22:07;95100.03;;;31.15;nan
20021;BME280;10171;42.694;23.318;2022-07-29T10:24:34;95110.59;;;31.27;nan
20021;BME280;10171;42.694;23.318;2022-07-29T10:27:02;95098.78;;;31.29;nan
20021;BME280;10171;42.694;23.318;2022-07-29T10:29:28;95101.28;;;31.13;nan
20021;BME280;10171;42.694;23.318;2022-07-29T10:40:31;95096.00;;;31.65;nan
20021;BME280;10171;42.694;23.318;2022-07-29T10:43:25;95090.34;;;31.85;nan
20021;BME280;10171;42.694;23.318;2022-07-29T10:45:56;95086.66;;;31.97;nan
20021;BME280;10171;42.694;23.318;2022-07-29T10:48:22;95084.25;;;31.96;nan
20021;BME280;10171;42.694;23.318;2022-07-29T10:51:15;95077.00;;;31.80;nan
20021;BME280;10171;42.694;23.318;2022-07-29T10:53:50;95074.03;;;31.99;nan
20021;BME280;10171;42.694;23.318;2022-07-29T10:56:30;95067.56;;;32.07;nan
20021;BME280;10171;42.694;23.318;2022-07-29T11:01:49;95074.91;;;32.27;nan
20021;BME280;10171;42.694;23.318;2022-07-29T11:05:02;95072.88;;;32.18;nan
20021;BME280;10171;42.694;23.318;2022-07-29T11:09:30;95059.06;;;32.16;nan
20021;BME280;10171;42.694;23.318;2022-07-29T11:11:56;95053.16;;;32.37;nan
20021;BME280;10171;42.694;23.318;2022-07-29T11:14:56;95057.34;;;32.49;nan
20021;BME280;10171;42.694;23.318;2022-07-29T11:17:24;95055.84;;;32.65;nan
20021;BME280;10171;42.694;23.318;2022-07-29T11:19:50;95052.03;;;32.61;nan
20021;BME280;10171;42.694;23.318;2022-07-29T11:22:35;95044.50;;;32.81;nan
20021;BME280;10171;42.694;23.318;2022-07-29T11:25:15;95045.22;;;32.93;nan
20021;BME280;10171;42.694;23.318;2022-07-29T11:27:40;95047.19;;;33.14;nan
20021;BME280;10171;42.694;23.318;2022-07-29T11:30:07;95051.91;;;33.12;nan
20021;BME280;10171;42.694;23.318;2022-07-29T11:32:41;95045.13;;;33.16;nan
20021;BME280;10171;42.694;23.318;2022-07-29T11:37:35;95039.66;;;33.39;nan
20021;BME280;10171;42.694;23.318;2022-07-29T11:50:13;95024.56;;;33.39;nan
20021;BME280;10171;42.694;23.318;2022-07-29T11:52:41;95022.94;;;33.38;nan
20021;BME280;10171;42.694;23.318;2022-07-29T11:55:16;95031.00;;;33.27;nan
20021;BME280;10171;42.694;23.318;2022-07-29T11:57:54;95019.66;;;33.31;nan
20021;BME280;10171;42.694;23.318;2022-07-29T12:00:30;95027.78;;;33.25;nan
20021;BME280;10171;42.694;23.318;2022-07-29T12:02:57;95030.31;;;32.87;nan
20021;BME280;10171;42.694;23.318;2022-07-29T12:05:44;95021.63;;;32.63;nan
20021;BME280;10171;42.694;23.318;2022-07-29T12:08:17;95019.16;;;32.85;nan
20021;BME280;10171;42.694;23.318;2022-07-29T12:10:48;95009.28;;;33.13;nan
20021;BME280;10171;42.694;23.318;2022-07-29T12:13:17;95023.56;;;33.12;nan
20021;BME280;10171;42.694;23.318;2022-07-29T12:15:52;95025.13;;;33.25;nan
20021;BME280;10171;42.694;23.318;2022-07-29T12:18:18;95003.91;;;33.41;nan
20021;BME280;10171;42.694;23.318;2022-07-29T12:20:45;95011.38;;;33.60;nan
20021;BME280;10171;42.694;23.318;2022-07-29T12:23:11;95016.97;;;33.64;nan
20021;BME280;10171;42.694;23.318;2022-07-29T12:25:38;95015.72;;;33.66;nan
20021;BME280;10171;42.694;23.318;2022-07-29T12:28:07;95010.06;;;33.63;nan
20021;BME280;10171;42.694;23.318;2022-07-29T12:30:44;95015.63;;;33.61;nan
20021;BME280;10171;42.694;23.318;2022-07-29T12:33:30;95013.09;;;33.88;nan
20021;BME280;10171;42.694;23.318;2022-07-29T12:35:58;95007.13;;;33.97;nan
20021;BME280;10171;42.694;23.318;2022-07-29T12:38:24;95002.34;;;34.37;nan
20021;BME280;10171;42.694;23.318;2022-07-29T12:40:52;94998.66;;;34.65;nan
20021;BME280;10171;42.694;23.318;2022-07-29T12:43:22;95002.59;;;34.62;nan
20021;BME280;10171;42.694;23.318;2022-07-29T12:45:50;94993.53;;;34.58;nan
20021;BME280;10171;42.694;23.318;2022-07-29T12:48:18;94997.91;;;34.48;nan
20021;BME280;10171;42.694;23.318;2022-07-29T12:50:59;94986.63;;;34.57;nan
20021;BME280;10171;42.694;23.318;2022-07-29T12:53:26;95000.84;;;34.46;nan
20021;BME280;10171;42.694;23.318;2022-07-29T12:55:52;94985.19;;;34.50;nan
20021;BME280;10171;42.694;23.318;2022-07-29T13:01:16;94982.75;;;34.43;nan
20021;BME280;10171;42.694;23.318;2022-07-29T13:03:48;94972.16;;;34.70;nan
20021;BME280;10171;42.694;23.318;2022-07-29T13:06:46;94965.13;;;34.85;nan
20021;BME280;10171;42.694;23.318;2022-07-29T13:09:16;94974.44;;;34.88;nan
20021;BME280;10171;42.694;23.318;2022-07-29T13:11:52;94966.00;;;34.95;nan
20021;BME280;10171;42.694;23.318;2022-07-29T13:14:37;94964.84;;;35.13;nan
20021;BME280;10171;42.694;23.318;2022-07-29T13:17:10;94968.19;;;35.03;nan
20021;BME280;10171;42.694;23.318;2022-07-29T13:19:43;94957.78;;;34.97;nan
20021;BME280;10171;42.694;23.318;2022-07-29T13:22:14;94955.66;;;34.68;nan
20021;BME280;10171;42.694;23.318;2022-07-29T13:24:56;94958.63;;;35.02;nan
20021;BME280;10171;42.694;23.318;2022-07-29T13:27:26;94957.75;;;34.92;nan
20021;BME280;10171;42.694;23.318;2022-07-29T13:29:53;94958.25;;;34.89;nan
20021;BME280;10171;42.694;23.318;2022-07-29T13:32:22;94953.38;;;34.76;nan
20021;BME280;10171;42.694;23.318;2022-07-29T13:34:47;94944.34;;;34.77;nan
20021;BME280;10171;42.694;23.318;2022-07-29T13:37:13;94949.78;;;34.92;nan
20021;BME280;10171;42.694;23.318;2022-07-29T13:39:39;94949.66;;;34.77;nan
20021;BME280;10171;42.694;23.318;2022-07-29T13:42:06;94941.47;;;34.84;nan
20021;BME280;10171;42.694;23.318;2022-07-29T13:44:31;94932.84;;;34.98;nan
20021;BME280;10171;42.694;23.318;2022-07-29T13:46:57;94939.75;;;34.99;nan
20021;BME280;10171;42.694;23.318;2022-07-29T13:49:24;94934.66;;;35.24;nan
20021;BME280;10171;42.694;23.318;2022-07-29T13:51:50;94948.53;;;35.36;nan
20021;BME280;10171;42.694;23.318;2022-07-29T13:54:15;94939.47;;;35.32;nan
20021;BME280;10171;42.694;23.318;2022-07-29T13:56:41;94934.72;;;35.02;nan
20021;BME280;10171;42.694;23.318;2022-07-29T13:59:06;94935.63;;;35.13;nan
20021;BME280;10171;42.694;23.318;2022-07-29T14:01:34;94937.59;;;35.32;nan
20021;BME280;10171;42.694;23.318;2022-07-29T14:04:00;94926.72;;;35.34;nan
20021;BME280;10171;42.694;23.318;2022-07-29T14:06:25;94935.47;;;35.29;nan
20021;BME280;10171;42.694;23.318;2022-07-29T14:08:51;94938.88;;;35.20;nan
20021;BME280;10171;42.694;23.318;2022-07-29T14:11:16;94951.41;;;35.29;nan